sensor_id;sensor_type;location;lat;lon;timestamp;temperature;humidity
12477;DHT22;6303;51.504;6.300;2023-03-22T00:00:39;22.90;55.10
12477;DHT22;6303;51.504;6.300;2023-03-22T00:03:06;22.90;55.10
12477;DHT22;6303;51.504;6.300;2023-03-22T00:05:33;22.90;55.00
12477;DHT22;6303;51.504;6.300;2023-03-22T00:08:00;22.90;55.00
12477;DHT22;6303;51.504;6.300;2023-03-22T00:10:30;22.90;55.00
12477;DHT22;6303;51.504;6.300;2023-03-22T00:12:59;22.80;55.00
12477;DHT22;6303;51.504;6.300;2023-03-22T00:15:26;22.80;55.00
12477;DHT22;6303;51.504;6.300;2023-03-22T00:17:54;22.80;55.00
12477;DHT22;6303;51.504;6.300;2023-03-22T00:20:22;22.80;55.00
12477;DHT22;6303;51.504;6.300;2023-03-22T00:22:49;22.80;55.00
12477;DHT22;6303;51.504;6.300;2023-03-22T00:25:17;22.80;55.00
12477;DHT22;6303;51.504;6.300;2023-03-22T00:27:44;22.80;55.00
12477;DHT22;6303;51.504;6.300;2023-03-22T00:30:13;22.80;54.90
12477;DHT22;6303;51.504;6.300;2023-03-22T00:32:40;22.80;54.90
12477;DHT22;6303;51.504;6.300;2023-03-22T00:35:09;22.80;54.90
12477;DHT22;6303;51.504;6.300;2023-03-22T00:37:37;22.80;55.00
12477;DHT22;6303;51.504;6.300;2023-03-22T00:40:06;22.80;54.90
12477;DHT22;6303;51.504;6.300;2023-03-22T00:42:34;22.80;54.90
12477;DHT22;6303;51.504;6.300;2023-03-22T00:45:02;22.80;54.90
12477;DHT22;6303;51.504;6.300;2023-03-22T00:47:30;22.70;54.90
12477;DHT22;6303;51.504;6.300;2023-03-22T00:49:58;22.70;55.00
12477;DHT22;6303;51.504;6.300;2023-03-22T00:52:25;22.70;54.80
12477;DHT22;6303;51.504;6.300;2023-03-22T00:54:53;22.70;54.90
12477;DHT22;6303;51.504;6.300;2023-03-22T00:57:20;22.70;54.80
12477;DHT22;6303;51.504;6.300;2023-03-22T00:59:47;22.70;54.80
12477;DHT22;6303;51.504;6.300;2023-03-22T01:02:15;22.70;54.70
12477;DHT22;6303;51.504;6.300;2023-03-22T01:04:43;22.70;54.70
12477;DHT22;6303;51.504;6.300;2023-03-22T01:07:11;22.70;54.80
12477;DHT22;6303;51.504;6.300;2023-03-22T01:09:43;22.70;54.70
12477;DHT22;6303;51.504;6.300;2023-03-22T01:12:14;22.70;54.60
12477;DHT22;6303;51.504;6.300;2023-03-22T01:14:41;22.80;54.70
12477;DHT22;6303;51.504;6.300;2023-03-22T01:17:09;22.80;54.70
12477;DHT22;6303;51.504;6.300;2023-03-22T01:19:36;22.80;54.60
12477;DHT22;6303;51.504;6.300;2023-03-22T01:22:05;22.80;54.60
12477;DHT22;6303;51.504;6.300;2023-03-22T01:24:33;22.80;54.60
12477;DHT22;6303;51.504;6.300;2023-03-22T01:27:01;22.70;54.50
12477;DHT22;6303;51.504;6.300;2023-03-22T01:29:28;22.80;54.60
12477;DHT22;6303;51.504;6.300;2023-03-22T01:31:56;22.70;54.50
12477;DHT22;6303;51.504;6.300;2023-03-22T01:34:23;22.80;54.60
12477;DHT22;6303;51.504;6.300;2023-03-22T01:36:53;22.80;54.40
12477;DHT22;6303;51.504;6.300;2023-03-22T01:39:21;22.80;54.50
12477;DHT22;6303;51.504;6.300;2023-03-22T01:41:54;22.70;54.60
12477;DHT22;6303;51.504;6.300;2023-03-22T01:44:22;22.70;54.50
12477;DHT22;6303;51.504;6.300;2023-03-22T01:46:52;22.70;54.50
12477;DHT22;6303;51.504;6.300;2023-03-22T01:49:22;22.70;54.50
12477;DHT22;6303;51.504;6.300;2023-03-22T01:51:53;22.70;54.50
12477;DHT22;6303;51.504;6.300;2023-03-22T01:54:34;22.70;54.50
12477;DHT22;6303;51.504;6.300;2023-03-22T01:57:15;22.70;54.50
12477;DHT22;6303;51.504;6.300;2023-03-22T01:59:44;22.70;54.50
12477;DHT22;6303;51.504;6.300;2023-03-22T02:02:22;22.70;54.50
12477;DHT22;6303;51.504;6.300;2023-03-22T02:04:57;22.70;54.50
12477;DHT22;6303;51.504;6.300;2023-03-22T02:07:28;22.70;54.40
12477;DHT22;6303;51.504;6.300;2023-03-22T02:09:57;22.70;54.40
12477;DHT22;6303;51.504;6.300;2023-03-22T02:12:42;22.70;54.50
12477;DHT22;6303;51.504;6.300;2023-03-22T02:15:32;22.70;55.10
12477;DHT22;6303;51.504;6.300;2023-03-22T02:18:30;22.70;54.50
12477;DHT22;6303;51.504;6.300;2023-03-22T02:27:21;22.70;54.30
12477;DHT22;6303;51.504;6.300;2023-03-22T02:29:58;22.70;54.40
12477;DHT22;6303;51.504;6.300;2023-03-22T02:35:41;22.70;54.30
12477;DHT22;6303;51.504;6.300;2023-03-22T02:38:54;22.70;54.30
12477;DHT22;6303;51.504;6.300;2023-03-22T02:41:38;22.70;54.40
12477;DHT22;6303;51.504;6.300;2023-03-22T02:44:16;22.70;54.20
12477;DHT22;6303;51.504;6.300;2023-03-22T02:46:50;22.70;54.30
12477;DHT22;6303;51.504;6.300;2023-03-22T02:49:27;22.70;54.30
12477;DHT22;6303;51.504;6.300;2023-03-22T02:52:00;22.70;54.20
12477;DHT22;6303;51.504;6.300;2023-03-22T02:54:36;22.70;54.30
12477;DHT22;6303;51.504;6.300;2023-03-22T02:57:08;22.70;54.20
12477;DHT22;6303;51.504;6.300;2023-03-22T02:59:39;22.70;54.30
12477;DHT22;6303;51.504;6.300;2023-03-22T03:02:09;22.70;54.30
12477;DHT22;6303;51.504;6.300;2023-03-22T03:04:40;22.60;54.30
12477;DHT22;6303;51.504;6.300;2023-03-22T03:07:11;22.70;54.20
12477;DHT22;6303;51.504;6.300;2023-03-22T03:09:41;22.70;54.30
12477;DHT22;6303;51.504;6.300;2023-03-22T03:12:14;22.60;54.30
12477;DHT22;6303;51.504;6.300;2023-03-22T03:14:43;22.60;54.20
12477;DHT22;6303;51.504;6.300;2023-03-22T03:17:20;22.60;54.30
12477;DHT22;6303;51.504;6.300;2023-03-22T03:20:02;22.60;54.30
12477;DHT22;6303;51.504;6.300;2023-03-22T03:22:43;22.60;54.30
12477;DHT22;6303;51.504;6.300;2023-03-22T03:25:20;22.70;54.20
12477;DHT22;6303;51.504;6.300;2023-03-22T03:27:57;22.60;54.20
12477;DHT22;6303;51.504;6.300;2023-03-22T03:30:31;22.60;54.30
12477;DHT22;6303;51.504;6.300;2023-03-22T03:33:02;22.60;54.30
12477;DHT22;6303;51.504;6.300;2023-03-22T03:35:33;22.60;54.20
12477;DHT22;6303;51.504;6.300;2023-03-22T03:38:06;22.60;54.20
12477;DHT22;6303;51.504;6.300;2023-03-22T03:40:39;22.30;53.90
12477;DHT22;6303;51.504;6.300;2023-03-22T03:43:07;22.60;54.00
12477;DHT22;6303;51.504;6.300;2023-03-22T03:45:36;22.60;54.00
12477;DHT22;6303;51.504;6.300;2023-03-22T03:48:07;22.60;54.00
12477;DHT22;6303;51.504;6.300;2023-03-22T03:50:36;22.60;54.00
12477;DHT22;6303;51.504;6.300;2023-03-22T03:53:03;22.60;54.10
12477;DHT22;6303;51.504;6.300;2023-03-22T03:55:31;22.60;54.10
12477;DHT22;6303;51.504;6.300;2023-03-22T03:58:00;22.60;54.00
12477;DHT22;6303;51.504;6.300;2023-03-22T04:00:27;22.60;54.10
12477;DHT22;6303;51.504;6.300;2023-03-22T04:03:13;22.60;54.10
12477;DHT22;6303;51.504;6.300;2023-03-22T04:06:13;22.60;54.10
12477;DHT22;6303;51.504;6.300;2023-03-22T04:08:45;22.60;54.00
12477;DHT22;6303;51.504;6.300;2023-03-22T04:11:18;22.60;54.10
12477;DHT22;6303;51.504;6.300;2023-03-22T04:13:51;22.60;54.10
12477;DHT22;6303;51.504;6.300;2023-03-22T04:16:20;22.60;54.10
12477;DHT22;6303;51.504;6.300;2023-03-22T04:18:49;22.60;54.00
12477;DHT22;6303;51.504;6.300;2023-03-22T04:21:18;22.50;54.00
12477;DHT22;6303;51.504;6.300;2023-03-22T04:23:53;22.50;54.00
12477;DHT22;6303;51.504;6.300;2023-03-22T04:26:21;22.50;54.00
12477;DHT22;6303;51.504;6.300;2023-03-22T04:29:03;22.50;54.10
12477;DHT22;6303;51.504;6.300;2023-03-22T04:31:32;22.50;54.10
12477;DHT22;6303;51.504;6.300;2023-03-22T04:34:07;22.50;54.10
12477;DHT22;6303;51.504;6.300;2023-03-22T04:36:48;22.50;54.10
12477;DHT22;6303;51.504;6.300;2023-03-22T04:39:23;22.50;54.10
12477;DHT22;6303;51.504;6.300;2023-03-22T04:42:03;22.50;54.10
12477;DHT22;6303;51.504;6.300;2023-03-22T04:44:31;22.50;54.00
12477;DHT22;6303;51.504;6.300;2023-03-22T04:46:58;22.50;54.00
12477;DHT22;6303;51.504;6.300;2023-03-22T04:49:25;22.50;53.90
12477;DHT22;6303;51.504;6.300;2023-03-22T04:51:54;22.50;54.00
12477;DHT22;6303;51.504;6.300;2023-03-22T04:54:28;22.50;54.00
12477;DHT22;6303;51.504;6.300;2023-03-22T04:56:55;22.50;54.00
12477;DHT22;6303;51.504;6.300;2023-03-22T04:59:24;22.50;54.00
12477;DHT22;6303;51.504;6.300;2023-03-22T05:01:53;22.50;54.00
12477;DHT22;6303;51.504;6.300;2023-03-22T05:04:25;22.50;53.80
12477;DHT22;6303;51.504;6.300;2023-03-22T05:06:59;22.50;54.00
12477;DHT22;6303;51.504;6.300;2023-03-22T05:09:35;22.50;53.80
12477;DHT22;6303;51.504;6.300;2023-03-22T05:12:03;22.50;54.00
12477;DHT22;6303;51.504;6.300;2023-03-22T05:14:46;22.50;54.00
12477;DHT22;6303;51.504;6.300;2023-03-22T05:17:17;22.50;53.90
12477;DHT22;6303;51.504;6.300;2023-03-22T05:19:44;22.50;54.00
12477;DHT22;6303;51.504;6.300;2023-03-22T05:22:12;22.40;53.90
12477;DHT22;6303;51.504;6.300;2023-03-22T05:24:44;22.50;54.00
12477;DHT22;6303;51.504;6.300;2023-03-22T05:27:19;22.20;53.50
12477;DHT22;6303;51.504;6.300;2023-03-22T05:29:57;22.50;53.90
12477;DHT22;6303;51.504;6.300;2023-03-22T05:32:36;22.50;53.80
12477;DHT22;6303;51.504;6.300;2023-03-22T05:35:08;22.40;53.70
12477;DHT22;6303;51.504;6.300;2023-03-22T05:37:40;22.40;53.70
12477;DHT22;6303;51.504;6.300;2023-03-22T05:40:08;22.40;53.70
12477;DHT22;6303;51.504;6.300;2023-03-22T05:42:39;22.40;53.70
12477;DHT22;6303;51.504;6.300;2023-03-22T05:45:16;22.40;53.60
12477;DHT22;6303;51.504;6.300;2023-03-22T05:47:49;22.50;53.80
12477;DHT22;6303;51.504;6.300;2023-03-22T05:50:22;22.50;53.80
12477;DHT22;6303;51.504;6.300;2023-03-22T05:52:50;22.50;53.80
12477;DHT22;6303;51.504;6.300;2023-03-22T05:55:26;22.50;53.70
12477;DHT22;6303;51.504;6.300;2023-03-22T05:57:59;22.50;53.80
12477;DHT22;6303;51.504;6.300;2023-03-22T06:00:27;22.50;53.50
12477;DHT22;6303;51.504;6.300;2023-03-22T06:03:21;22.40;53.60
12477;DHT22;6303;51.504;6.300;2023-03-22T06:05:54;22.40;52.70
12477;DHT22;6303;51.504;6.300;2023-03-22T06:08:33;22.40;52.20
12477;DHT22;6303;51.504;6.300;2023-03-22T06:11:00;22.40;52.10
12477;DHT22;6303;51.504;6.300;2023-03-22T06:13:28;22.30;52.10
12477;DHT22;6303;51.504;6.300;2023-03-22T06:15:58;22.30;52.50
12477;DHT22;6303;51.504;6.300;2023-03-22T06:18:27;22.30;52.60
12477;DHT22;6303;51.504;6.300;2023-03-22T06:21:01;22.30;52.80
12477;DHT22;6303;51.504;6.300;2023-03-22T06:23:28;22.40;53.60
12477;DHT22;6303;51.504;6.300;2023-03-22T06:25:55;22.40;53.10
12477;DHT22;6303;51.504;6.300;2023-03-22T06:28:23;22.30;55.30
12477;DHT22;6303;51.504;6.300;2023-03-22T06:30:54;22.10;55.80
12477;DHT22;6303;51.504;6.300;2023-03-22T06:33:34;21.90;55.60
12477;DHT22;6303;51.504;6.300;2023-03-22T06:36:09;21.90;55.60
12477;DHT22;6303;51.504;6.300;2023-03-22T06:39:06;21.90;55.50
12477;DHT22;6303;51.504;6.300;2023-03-22T06:41:33;22.10;55.30
12477;DHT22;6303;51.504;6.300;2023-03-22T06:44:00;22.20;54.70
12477;DHT22;6303;51.504;6.300;2023-03-22T06:46:54;22.20;54.60
12477;DHT22;6303;51.504;6.300;2023-03-22T06:49:42;22.10;55.00
12477;DHT22;6303;51.504;6.300;2023-03-22T06:52:15;22.10;55.00
12477;DHT22;6303;51.504;6.300;2023-03-22T06:54:42;22.10;55.10
12477;DHT22;6303;51.504;6.300;2023-03-22T06:57:09;22.20;55.00
12477;DHT22;6303;51.504;6.300;2023-03-22T06:59:37;22.30;54.60
12477;DHT22;6303;51.504;6.300;2023-03-22T07:02:04;22.30;54.40
12477;DHT22;6303;51.504;6.300;2023-03-22T07:04:31;22.40;54.20
12477;DHT22;6303;51.504;6.300;2023-03-22T07:07:00;22.40;54.10
12477;DHT22;6303;51.504;6.300;2023-03-22T07:09:28;22.40;54.10
12477;DHT22;6303;51.504;6.300;2023-03-22T07:11:58;22.40;54.00
12477;DHT22;6303;51.504;6.300;2023-03-22T07:14:25;22.40;53.90
12477;DHT22;6303;51.504;6.300;2023-03-22T07:17:00;22.40;53.90
12477;DHT22;6303;51.504;6.300;2023-03-22T07:19:29;22.40;53.90
12477;DHT22;6303;51.504;6.300;2023-03-22T07:21:59;22.40;53.80
12477;DHT22;6303;51.504;6.300;2023-03-22T07:24:26;22.50;53.80
12477;DHT22;6303;51.504;6.300;2023-03-22T07:26:53;22.50;53.70
12477;DHT22;6303;51.504;6.300;2023-03-22T07:29:25;22.50;53.70
12477;DHT22;6303;51.504;6.300;2023-03-22T07:31:52;22.50;53.50
12477;DHT22;6303;51.504;6.300;2023-03-22T07:34:23;22.50;53.40
12477;DHT22;6303;51.504;6.300;2023-03-22T07:37:02;22.70;53.20
12477;DHT22;6303;51.504;6.300;2023-03-22T07:39:30;22.70;53.00
12477;DHT22;6303;51.504;6.300;2023-03-22T07:41:57;22.70;52.90
12477;DHT22;6303;51.504;6.300;2023-03-22T07:44:25;21.90;52.30
12477;DHT22;6303;51.504;6.300;2023-03-22T07:47:15;22.80;52.70
12477;DHT22;6303;51.504;6.300;2023-03-22T07:49:53;22.80;52.60
12477;DHT22;6303;51.504;6.300;2023-03-22T07:52:26;22.80;52.50
12477;DHT22;6303;51.504;6.300;2023-03-22T07:54:53;22.90;52.40
12477;DHT22;6303;51.504;6.300;2023-03-22T07:57:20;22.90;52.30
12477;DHT22;6303;51.504;6.300;2023-03-22T07:59:54;22.90;52.10
12477;DHT22;6303;51.504;6.300;2023-03-22T08:02:23;23.00;52.00
12477;DHT22;6303;51.504;6.300;2023-03-22T08:04:52;23.00;52.10
12477;DHT22;6303;51.504;6.300;2023-03-22T08:07:41;23.00;52.60
12477;DHT22;6303;51.504;6.300;2023-03-22T08:10:10;22.90;51.90
12477;DHT22;6303;51.504;6.300;2023-03-22T08:12:37;22.90;51.90
12477;DHT22;6303;51.504;6.300;2023-03-22T08:15:12;22.90;51.80
12477;DHT22;6303;51.504;6.300;2023-03-22T08:17:41;23.00;51.90
12477;DHT22;6303;51.504;6.300;2023-03-22T08:20:14;23.00;51.50
12477;DHT22;6303;51.504;6.300;2023-03-22T08:22:49;23.00;51.20
12477;DHT22;6303;51.504;6.300;2023-03-22T08:25:25;23.10;51.00
12477;DHT22;6303;51.504;6.300;2023-03-22T08:27:56;23.10;50.90
12477;DHT22;6303;51.504;6.300;2023-03-22T08:30:26;23.20;50.60
12477;DHT22;6303;51.504;6.300;2023-03-22T08:32:53;23.20;50.30
12477;DHT22;6303;51.504;6.300;2023-03-22T08:35:20;23.20;50.30
12477;DHT22;6303;51.504;6.300;2023-03-22T08:37:53;23.20;50.20
12477;DHT22;6303;51.504;6.300;2023-03-22T08:40:24;23.30;50.10
12477;DHT22;6303;51.504;6.300;2023-03-22T08:42:56;23.30;50.00
12477;DHT22;6303;51.504;6.300;2023-03-22T08:45:23;23.30;50.00
12477;DHT22;6303;51.504;6.300;2023-03-22T08:47:58;23.30;49.80
12477;DHT22;6303;51.504;6.300;2023-03-22T08:50:26;23.30;49.80
12477;DHT22;6303;51.504;6.300;2023-03-22T08:53:07;23.30;49.60
12477;DHT22;6303;51.504;6.300;2023-03-22T08:55:36;23.20;49.80
12477;DHT22;6303;51.504;6.300;2023-03-22T08:58:10;23.20;49.00
12477;DHT22;6303;51.504;6.300;2023-03-22T09:00:49;23.20;48.90
12477;DHT22;6303;51.504;6.300;2023-03-22T09:03:34;23.20;48.80
12477;DHT22;6303;51.504;6.300;2023-03-22T09:06:01;23.20;48.80
12477;DHT22;6303;51.504;6.300;2023-03-22T09:08:35;23.10;48.80
12477;DHT22;6303;51.504;6.300;2023-03-22T09:11:07;23.10;48.70
12477;DHT22;6303;51.504;6.300;2023-03-22T09:13:35;23.10;48.70
12477;DHT22;6303;51.504;6.300;2023-03-22T09:16:02;23.10;48.50
12477;DHT22;6303;51.504;6.300;2023-03-22T09:18:32;23.10;48.50
12477;DHT22;6303;51.504;6.300;2023-03-22T09:21:03;23.00;48.40
12477;DHT22;6303;51.504;6.300;2023-03-22T09:23:46;23.00;48.30
12477;DHT22;6303;51.504;6.300;2023-03-22T09:26:20;23.00;48.40
12477;DHT22;6303;51.504;6.300;2023-03-22T09:28:50;23.00;48.60
12477;DHT22;6303;51.504;6.300;2023-03-22T09:31:17;23.00;48.60
12477;DHT22;6303;51.504;6.300;2023-03-22T09:33:45;23.00;48.50
12477;DHT22;6303;51.504;6.300;2023-03-22T09:36:12;23.00;48.60
12477;DHT22;6303;51.504;6.300;2023-03-22T09:38:40;23.10;48.70
12477;DHT22;6303;51.504;6.300;2023-03-22T09:41:12;23.10;48.40
12477;DHT22;6303;51.504;6.300;2023-03-22T09:43:45;23.10;48.10
12477;DHT22;6303;51.504;6.300;2023-03-22T09:46:16;23.20;47.90
12477;DHT22;6303;51.504;6.300;2023-03-22T09:48:46;23.20;47.90
12477;DHT22;6303;51.504;6.300;2023-03-22T09:51:29;23.20;48.00
12477;DHT22;6303;51.504;6.300;2023-03-22T09:53:59;23.20;48.00
12477;DHT22;6303;51.504;6.300;2023-03-22T09:56:29;23.20;47.80
12477;DHT22;6303;51.504;6.300;2023-03-22T09:59:04;23.30;47.60
12477;DHT22;6303;51.504;6.300;2023-03-22T10:01:35;23.20;47.40
12477;DHT22;6303;51.504;6.300;2023-03-22T10:04:24;23.20;47.40
12477;DHT22;6303;51.504;6.300;2023-03-22T10:07:03;23.20;47.50
12477;DHT22;6303;51.504;6.300;2023-03-22T10:09:36;23.20;47.50
12477;DHT22;6303;51.504;6.300;2023-03-22T10:12:13;23.20;47.50
12477;DHT22;6303;51.504;6.300;2023-03-22T10:14:47;23.20;47.50
12477;DHT22;6303;51.504;6.300;2023-03-22T10:17:17;23.20;47.50
12477;DHT22;6303;51.504;6.300;2023-03-22T10:19:50;23.10;47.30
12477;DHT22;6303;51.504;6.300;2023-03-22T10:22:22;23.20;47.20
12477;DHT22;6303;51.504;6.300;2023-03-22T10:24:51;23.20;47.20
12477;DHT22;6303;51.504;6.300;2023-03-22T10:27:21;23.20;47.10
12477;DHT22;6303;51.504;6.300;2023-03-22T10:29:50;23.20;47.20
12477;DHT22;6303;51.504;6.300;2023-03-22T10:32:22;23.10;47.00
12477;DHT22;6303;51.504;6.300;2023-03-22T10:34:52;23.10;47.10
12477;DHT22;6303;51.504;6.300;2023-03-22T10:37:22;23.10;47.10
12477;DHT22;6303;51.504;6.300;2023-03-22T10:39:51;23.10;47.10
12477;DHT22;6303;51.504;6.300;2023-03-22T10:42:23;23.00;47.10
12477;DHT22;6303;51.504;6.300;2023-03-22T10:44:53;23.10;47.10
12477;DHT22;6303;51.504;6.300;2023-03-22T10:47:28;23.00;46.90
12477;DHT22;6303;51.504;6.300;2023-03-22T10:49:59;23.00;46.90
12477;DHT22;6303;51.504;6.300;2023-03-22T10:52:40;23.00;46.90
12477;DHT22;6303;51.504;6.300;2023-03-22T10:55:10;23.00;46.90
12477;DHT22;6303;51.504;6.300;2023-03-22T10:57:40;23.00;46.90
12477;DHT22;6303;51.504;6.300;2023-03-22T11:00:09;23.00;46.90
12477;DHT22;6303;51.504;6.300;2023-03-22T11:02:46;23.00;46.80
12477;DHT22;6303;51.504;6.300;2023-03-22T11:05:20;23.00;46.90
12477;DHT22;6303;51.504;6.300;2023-03-22T11:07:48;23.00;46.90
12477;DHT22;6303;51.504;6.300;2023-03-22T11:10:22;23.00;46.90
12477;DHT22;6303;51.504;6.300;2023-03-22T11:12:55;23.00;46.80
12477;DHT22;6303;51.504;6.300;2023-03-22T11:15:27;23.00;46.80
12477;DHT22;6303;51.504;6.300;2023-03-22T11:18:00;23.00;46.80
12477;DHT22;6303;51.504;6.300;2023-03-22T11:20:27;23.00;46.70
12477;DHT22;6303;51.504;6.300;2023-03-22T11:22:55;23.00;46.60
12477;DHT22;6303;51.504;6.300;2023-03-22T11:25:27;23.00;46.50
12477;DHT22;6303;51.504;6.300;2023-03-22T11:28:04;22.90;46.50
12477;DHT22;6303;51.504;6.300;2023-03-22T11:30:33;22.90;46.50
12477;DHT22;6303;51.504;6.300;2023-03-22T11:33:02;22.90;46.50
12477;DHT22;6303;51.504;6.300;2023-03-22T11:35:37;22.90;46.60
12477;DHT22;6303;51.504;6.300;2023-03-22T11:38:04;22.90;46.70
12477;DHT22;6303;51.504;6.300;2023-03-22T11:40:34;22.90;46.80
12477;DHT22;6303;51.504;6.300;2023-03-22T11:43:11;22.90;46.90
12477;DHT22;6303;51.504;6.300;2023-03-22T11:45:43;22.90;46.80
12477;DHT22;6303;51.504;6.300;2023-03-22T11:48:14;22.90;46.90
12477;DHT22;6303;51.504;6.300;2023-03-22T11:50:43;22.90;47.00
12477;DHT22;6303;51.504;6.300;2023-03-22T11:53:14;22.90;47.10
12477;DHT22;6303;51.504;6.300;2023-03-22T11:55:43;22.80;47.20
12477;DHT22;6303;51.504;6.300;2023-03-22T11:58:23;22.80;47.20
12477;DHT22;6303;51.504;6.300;2023-03-22T12:00:51;22.80;47.20
12477;DHT22;6303;51.504;6.300;2023-03-22T12:03:21;22.80;47.10
12477;DHT22;6303;51.504;6.300;2023-03-22T12:05:50;22.80;47.00
12477;DHT22;6303;51.504;6.300;2023-03-22T12:08:25;22.80;47.10
12477;DHT22;6303;51.504;6.300;2023-03-22T12:10:58;22.90;47.20
12477;DHT22;6303;51.504;6.300;2023-03-22T12:13:36;22.80;47.10
12477;DHT22;6303;51.504;6.300;2023-03-22T12:16:06;22.90;47.10
12477;DHT22;6303;51.504;6.300;2023-03-22T12:18:40;22.90;47.00
12477;DHT22;6303;51.504;6.300;2023-03-22T12:21:10;22.90;47.00
12477;DHT22;6303;51.504;6.300;2023-03-22T12:23:37;22.90;47.10
12477;DHT22;6303;51.504;6.300;2023-03-22T12:26:07;22.80;47.20
12477;DHT22;6303;51.504;6.300;2023-03-22T12:28:42;22.80;47.90
12477;DHT22;6303;51.504;6.300;2023-03-22T12:31:16;22.80;47.20
12477;DHT22;6303;51.504;6.300;2023-03-22T12:33:47;22.80;47.10
12477;DHT22;6303;51.504;6.300;2023-03-22T12:36:16;22.60;47.10
12477;DHT22;6303;51.504;6.300;2023-03-22T12:38:48;22.80;47.20
12477;DHT22;6303;51.504;6.300;2023-03-22T12:41:18;22.80;47.10
12477;DHT22;6303;51.504;6.300;2023-03-22T12:43:53;22.80;47.10
12477;DHT22;6303;51.504;6.300;2023-03-22T12:46:24;22.80;47.20
12477;DHT22;6303;51.504;6.300;2023-03-22T12:48:54;22.80;47.40
12477;DHT22;6303;51.504;6.300;2023-03-22T12:51:23;22.80;47.50
12477;DHT22;6303;51.504;6.300;2023-03-22T12:53:53;22.80;47.60
12477;DHT22;6303;51.504;6.300;2023-03-22T12:56:23;22.80;47.70
12477;DHT22;6303;51.504;6.300;2023-03-22T12:58:55;22.80;47.80
12477;DHT22;6303;51.504;6.300;2023-03-22T13:01:28;22.80;47.80
12477;DHT22;6303;51.504;6.300;2023-03-22T13:03:58;22.80;47.90
12477;DHT22;6303;51.504;6.300;2023-03-22T13:06:31;22.80;47.90
12477;DHT22;6303;51.504;6.300;2023-03-22T13:09:17;22.80;47.90
12477;DHT22;6303;51.504;6.300;2023-03-22T13:11:45;22.80;47.90
12477;DHT22;6303;51.504;6.300;2023-03-22T13:14:53;22.80;47.90
12477;DHT22;6303;51.504;6.300;2023-03-22T13:17:43;22.80;48.10
12477;DHT22;6303;51.504;6.300;2023-03-22T13:20:26;22.80;48.10
12477;DHT22;6303;51.504;6.300;2023-03-22T13:23:10;22.80;48.10
12477;DHT22;6303;51.504;6.300;2023-03-22T13:25:38;22.80;48.10
12477;DHT22;6303;51.504;6.300;2023-03-22T13:28:22;22.80;48.10
12477;DHT22;6303;51.504;6.300;2023-03-22T13:30:50;22.80;48.20
12477;DHT22;6303;51.504;6.300;2023-03-22T13:33:24;22.80;48.20
12477;DHT22;6303;51.504;6.300;2023-03-22T13:35:53;22.80;48.20
12477;DHT22;6303;51.504;6.300;2023-03-22T13:38:24;22.80;48.30
12477;DHT22;6303;51.504;6.300;2023-03-22T13:40:58;22.80;48.30
12477;DHT22;6303;51.504;6.300;2023-03-22T13:43:30;22.80;48.40
12477;DHT22;6303;51.504;6.300;2023-03-22T13:51:50;22.80;48.50
12477;DHT22;6303;51.504;6.300;2023-03-22T13:54:20;22.80;48.50
12477;DHT22;6303;51.504;6.300;2023-03-22T13:56:52;22.80;48.50
12477;DHT22;6303;51.504;6.300;2023-03-22T13:59:28;22.80;48.60
12477;DHT22;6303;51.504;6.300;2023-03-22T14:01:58;22.80;49.00
12477;DHT22;6303;51.504;6.300;2023-03-22T14:04:30;22.90;49.80
12477;DHT22;6303;51.504;6.300;2023-03-22T14:07:11;22.90;51.50
12477;DHT22;6303;51.504;6.300;2023-03-22T14:09:48;22.80;51.00
12477;DHT22;6303;51.504;6.300;2023-03-22T14:12:18;22.00;50.20
12477;DHT22;6303;51.504;6.300;2023-03-22T14:14:51;22.80;50.40
12477;DHT22;6303;51.504;6.300;2023-03-22T14:17:28;22.80;50.30
12477;DHT22;6303;51.504;6.300;2023-03-22T14:19:57;22.80;50.30
12477;DHT22;6303;51.504;6.300;2023-03-22T14:22:28;22.90;50.30
12477;DHT22;6303;51.504;6.300;2023-03-22T14:24:57;22.90;50.20
12477;DHT22;6303;51.504;6.300;2023-03-22T14:27:25;22.90;50.20
12477;DHT22;6303;51.504;6.300;2023-03-22T14:29:53;22.90;50.20
12477;DHT22;6303;51.504;6.300;2023-03-22T14:32:21;22.90;50.10
12477;DHT22;6303;51.504;6.300;2023-03-22T14:34:57;22.90;50.20
12477;DHT22;6303;51.504;6.300;2023-03-22T14:37:29;22.90;50.10
12477;DHT22;6303;51.504;6.300;2023-03-22T14:39:57;22.90;50.20
12477;DHT22;6303;51.504;6.300;2023-03-22T14:42:27;22.90;50.10
12477;DHT22;6303;51.504;6.300;2023-03-22T14:44:56;22.90;50.20
12477;DHT22;6303;51.504;6.300;2023-03-22T14:47:25;22.90;50.20
12477;DHT22;6303;51.504;6.300;2023-03-22T14:49:56;22.90;50.20
12477;DHT22;6303;51.504;6.300;2023-03-22T14:52:26;22.90;50.10
12477;DHT22;6303;51.504;6.300;2023-03-22T14:54:57;22.90;50.20
12477;DHT22;6303;51.504;6.300;2023-03-22T14:57:26;22.90;50.10
12477;DHT22;6303;51.504;6.300;2023-03-22T14:59:55;22.90;50.10
12477;DHT22;6303;51.504;6.300;2023-03-22T15:02:29;22.90;50.20
12477;DHT22;6303;51.504;6.300;2023-03-22T15:04:59;22.90;50.20
12477;DHT22;6303;51.504;6.300;2023-03-22T15:07:27;22.90;50.20
12477;DHT22;6303;51.504;6.300;2023-03-22T15:12:48;23.00;50.30
12477;DHT22;6303;51.504;6.300;2023-03-22T15:15:17;23.00;50.20
12477;DHT22;6303;51.504;6.300;2023-03-22T15:17:46;23.00;50.20
12477;DHT22;6303;51.504;6.300;2023-03-22T15:20:16;23.00;50.30
12477;DHT22;6303;51.504;6.300;2023-03-22T15:22:49;23.00;50.30
12477;DHT22;6303;51.504;6.300;2023-03-22T15:25:17;22.90;50.30
12477;DHT22;6303;51.504;6.300;2023-03-22T15:27:46;22.90;50.30
12477;DHT22;6303;51.504;6.300;2023-03-22T15:30:17;22.90;50.30
12477;DHT22;6303;51.504;6.300;2023-03-22T15:32:45;22.90;50.20
12477;DHT22;6303;51.504;6.300;2023-03-22T15:35:14;22.90;50.20
12477;DHT22;6303;51.504;6.300;2023-03-22T15:37:41;22.90;50.30
12477;DHT22;6303;51.504;6.300;2023-03-22T15:40:37;22.90;50.30
12477;DHT22;6303;51.504;6.300;2023-03-22T15:43:20;22.90;50.30
12477;DHT22;6303;51.504;6.300;2023-03-22T15:46:11;22.90;50.20
12477;DHT22;6303;51.504;6.300;2023-03-22T15:48:41;22.90;50.20
12477;DHT22;6303;51.504;6.300;2023-03-22T15:51:14;22.90;50.20
12477;DHT22;6303;51.504;6.300;2023-03-22T15:53:42;22.90;50.30
12477;DHT22;6303;51.504;6.300;2023-03-22T15:56:23;22.90;50.30
12477;DHT22;6303;51.504;6.300;2023-03-22T15:58:55;22.90;50.30
12477;DHT22;6303;51.504;6.300;2023-03-22T16:01:22;22.90;50.40
12477;DHT22;6303;51.504;6.300;2023-03-22T16:03:52;23.00;50.50
12477;DHT22;6303;51.504;6.300;2023-03-22T16:06:22;22.90;50.80
12477;DHT22;6303;51.504;6.300;2023-03-22T16:08:49;22.90;51.00
12477;DHT22;6303;51.504;6.300;2023-03-22T16:11:18;21.80;50.40
12477;DHT22;6303;51.504;6.300;2023-03-22T16:13:46;22.90;50.90
12477;DHT22;6303;51.504;6.300;2023-03-22T16:16:16;22.90;50.90
12477;DHT22;6303;51.504;6.300;2023-03-22T16:18:43;22.90;50.90
12477;DHT22;6303;51.504;6.300;2023-03-22T16:21:11;22.90;50.80
12477;DHT22;6303;51.504;6.300;2023-03-22T16:23:39;22.90;50.80
12477;DHT22;6303;51.504;6.300;2023-03-22T16:26:11;22.90;50.90
12477;DHT22;6303;51.504;6.300;2023-03-22T16:28:38;22.90;50.90
12477;DHT22;6303;51.504;6.300;2023-03-22T16:31:11;22.90;50.90
12477;DHT22;6303;51.504;6.300;2023-03-22T16:33:39;22.90;50.90